createdAt,value
2023-02-11T00:01:13.685Z,19.75
2023-02-11T00:03:40.621Z,18.73
2023-02-11T00:06:11.495Z,18.13
2023-02-11T00:08:39.760Z,18.60
2023-02-11T00:11:07.065Z,19.95
2023-02-11T00:13:33.937Z,19.67
2023-02-11T00:16:00.430Z,19.80
2023-02-11T00:18:27.783Z,19.95
2023-02-11T00:20:54.296Z,18.80
2023-02-11T00:23:20.901Z,19.50
2023-02-11T00:25:47.792Z,20.70
2023-02-11T00:28:15.721Z,19.65
2023-02-11T00:30:42.677Z,20.92
2023-02-11T00:33:09.723Z,19.55
2023-02-11T00:35:39.039Z,19.95
2023-02-11T00:38:05.645Z,20.15
2023-02-11T00:40:32.158Z,19.70
2023-02-11T00:42:58.653Z,19.75
2023-02-11T00:45:25.317Z,19.45
2023-02-11T00:47:51.991Z,21.23
2023-02-11T00:50:18.505Z,20.60
2023-02-11T00:52:45.176Z,20.98
2023-02-11T00:55:11.709Z,21.08
2023-02-11T00:57:38.236Z,21.45
2023-02-11T01:00:06.388Z,21.08
2023-02-11T01:02:33.278Z,20.45
2023-02-11T01:05:00.940Z,21.83
2023-02-11T01:07:28.432Z,20.10
2023-02-11T01:09:55.024Z,21.08
2023-02-11T01:12:21.546Z,20.13
2023-02-11T01:14:48.858Z,19.73
2023-02-11T01:17:15.548Z,21.83
2023-02-11T01:19:42.178Z,21.45
2023-02-11T01:22:10.086Z,21.20
2023-02-11T01:24:36.806Z,19.52
2023-02-11T01:27:03.399Z,20.58
2023-02-11T01:29:29.996Z,20.02
2023-02-11T01:31:56.635Z,20.00
2023-02-11T01:34:23.450Z,19.90
2023-02-11T01:36:49.998Z,20.73
2023-02-11T01:39:16.500Z,19.92
2023-02-11T01:41:43.264Z,20.13
2023-02-11T01:44:26.763Z,20.92
2023-02-11T01:46:54.362Z,19.83
2023-02-11T01:49:33.168Z,20.40
2023-02-11T01:52:12.217Z,19.63
2023-02-11T01:55:02.971Z,21.02
2023-02-11T01:57:32.443Z,22.40
2023-02-11T02:00:13.295Z,21.02
2023-02-11T02:03:00.285Z,20.63
2023-02-11T02:05:43.456Z,21.88
2023-02-11T02:08:19.557Z,22.20
2023-02-11T02:10:50.179Z,21.10
2023-02-11T02:13:17.621Z,20.67
2023-02-11T02:15:59.479Z,21.65
2023-02-11T02:19:13.634Z,22.40
2023-02-11T02:21:52.322Z,20.40
2023-02-11T02:24:46.943Z,21.77
2023-02-11T02:27:41.429Z,22.83
2023-02-11T02:30:17.279Z,22.08
2023-02-11T02:32:55.969Z,21.98
2023-02-11T02:35:43.548Z,21.65
2023-02-11T02:38:23.424Z,21.42
2023-02-11T02:40:59.268Z,22.65
2023-02-11T02:43:27.747Z,21.35
2023-02-11T02:45:54.986Z,21.38
2023-02-11T02:48:32.716Z,21.30
2023-02-11T02:51:34.283Z,22.30
2023-02-11T02:54:17.615Z,22.13
2023-02-11T02:57:01.260Z,23.70
2023-02-11T02:59:33.809Z,21.13
2023-02-11T03:02:34.379Z,23.13
2023-02-11T03:05:12.151Z,23.75
2023-02-11T03:07:48.515Z,21.75
2023-02-11T03:10:20.627Z,21.92
2023-02-11T03:12:48.667Z,23.23
2023-02-11T03:15:20.069Z,22.77
2023-02-11T03:17:49.547Z,23.50
2023-02-11T03:20:18.719Z,20.85
2023-02-11T03:22:55.712Z,22.42
2023-02-11T03:25:30.193Z,21.42
2023-02-11T03:28:13.939Z,22.73
2023-02-11T03:30:49.810Z,21.77
2023-02-11T03:33:28.162Z,22.23
2023-02-11T03:36:00.142Z,21.77
2023-02-11T03:38:33.212Z,22.30
2023-02-11T03:41:02.360Z,22.70
2023-02-11T03:43:40.583Z,22.48
2023-02-11T03:46:08.735Z,20.52
2023-02-11T03:48:40.187Z,22.30
2023-02-11T03:51:09.832Z,22.15
2023-02-11T03:53:38.619Z,22.67
2023-02-11T03:56:08.741Z,23.70
2023-02-11T03:58:35.945Z,22.02
2023-02-11T04:01:02.993Z,22.38
2023-02-11T04:03:29.742Z,22.05
2023-02-11T04:05:56.389Z,21.52
2023-02-11T04:08:22.843Z,21.90
2023-02-11T04:10:49.380Z,22.92
2023-02-11T04:13:15.927Z,21.80
2023-02-11T04:15:42.435Z,22.58
2023-02-11T04:18:09.273Z,22.27
2023-02-11T04:20:35.890Z,22.70
2023-02-11T04:23:02.455Z,22.58
2023-02-11T04:25:29.225Z,22.58
2023-02-11T04:27:55.854Z,20.88
2023-02-11T04:30:22.558Z,22.63
2023-02-11T04:32:49.082Z,23.20
2023-02-11T04:35:15.598Z,22.58
2023-02-11T04:37:42.202Z,21.65
2023-02-11T04:40:09.347Z,22.85
2023-02-11T04:42:36.794Z,24.00
2023-02-11T04:45:03.824Z,23.25
2023-02-11T04:47:30.663Z,23.67
2023-02-11T04:49:57.246Z,24.80
2023-02-11T04:52:23.746Z,21.85
2023-02-11T04:54:50.220Z,22.05
2023-02-11T04:57:16.866Z,22.95
2023-02-11T04:59:44.048Z,22.50
2023-02-11T05:02:10.553Z,21.85
2023-02-11T05:04:37.416Z,22.65
2023-02-11T05:07:03.878Z,22.25
2023-02-11T05:09:30.491Z,23.75
2023-02-11T05:11:56.995Z,22.83
2023-02-11T05:14:23.503Z,21.98
2023-02-11T05:16:50.393Z,22.08
2023-02-11T05:19:16.951Z,23.00
2023-02-11T05:21:56.572Z,23.58
2023-02-11T05:24:28.049Z,23.88
2023-02-11T05:26:54.582Z,24.20
2023-02-11T05:29:21.188Z,22.80
2023-02-11T05:31:47.910Z,21.88
2023-02-11T05:34:14.464Z,22.20
2023-02-11T05:36:41.223Z,24.60
2023-02-11T05:39:07.713Z,23.45
2023-02-11T05:41:34.167Z,23.77
2023-02-11T05:44:00.781Z,23.90
2023-02-11T05:46:27.508Z,21.60
2023-02-11T05:48:54.078Z,23.75
2023-02-11T05:51:20.750Z,23.60
2023-02-11T05:53:47.303Z,22.20
2023-02-11T05:56:15.010Z,23.05
2023-02-11T05:58:41.494Z,23.65
2023-02-11T06:01:08.366Z,25.60
2023-02-11T06:03:34.790Z,23.63
2023-02-11T06:06:01.312Z,23.52
2023-02-11T06:08:27.786Z,19.98
2023-02-11T06:10:54.195Z,23.02
2023-02-11T06:13:20.628Z,24.00
2023-02-11T06:15:56.360Z,24.77
2023-02-11T06:18:23.158Z,24.02
2023-02-11T06:20:49.758Z,23.27
2023-02-11T06:23:16.234Z,24.50
2023-02-11T06:25:42.649Z,23.30
2023-02-11T06:28:10.693Z,24.08
2023-02-11T06:30:38.286Z,24.20
2023-02-11T06:33:05.007Z,25.40
2023-02-11T06:35:33.512Z,26.02
2023-02-11T06:37:59.996Z,24.65
2023-02-11T06:40:26.452Z,24.13
2023-02-11T06:42:53.376Z,24.30
2023-02-11T06:45:20.579Z,24.27
2023-02-11T06:47:47.448Z,24.25
2023-02-11T06:50:14.690Z,23.63
2023-02-11T06:52:41.766Z,23.88
2023-02-11T06:55:08.470Z,25.17
2023-02-11T06:57:34.934Z,24.98
2023-02-11T07:00:01.476Z,25.45
2023-02-11T07:02:28.248Z,22.73
2023-02-11T07:04:54.734Z,24.17
2023-02-11T07:07:21.194Z,24.70
2023-02-11T07:09:47.629Z,24.98
2023-02-11T07:12:14.053Z,25.73
2023-02-11T07:14:40.680Z,24.85
2023-02-11T07:17:07.375Z,24.67
2023-02-11T07:19:33.798Z,23.10
2023-02-11T07:22:00.402Z,24.08
2023-02-11T07:24:27.238Z,25.20
2023-02-11T07:26:54.357Z,23.27
2023-02-11T07:29:20.889Z,23.90
2023-02-11T07:31:47.506Z,24.63
2023-02-11T07:34:14.004Z,23.25
2023-02-11T07:36:40.517Z,24.80
2023-02-11T07:39:06.938Z,24.55
2023-02-11T07:41:37.791Z,24.27
2023-02-11T07:44:04.995Z,24.83
2023-02-11T07:46:31.703Z,24.70
2023-02-11T07:48:58.440Z,24.23
2023-02-11T07:51:27.936Z,24.58
2023-02-11T07:53:56.215Z,23.30
2023-02-11T07:56:22.917Z,25.45
2023-02-11T07:58:50.295Z,24.38
2023-02-11T08:01:25.291Z,27.92
2023-02-11T08:03:52.319Z,26.33
2023-02-11T08:06:21.006Z,24.63
2023-02-11T08:08:47.596Z,23.08
2023-02-11T08:11:16.663Z,24.13
2023-02-11T08:13:43.287Z,23.88
2023-02-11T08:16:16.799Z,23.55
2023-02-11T08:18:43.304Z,23.85
2023-02-11T08:21:10.128Z,22.67
2023-02-11T08:23:38.113Z,24.75
2023-02-11T08:26:10.670Z,23.65
2023-02-11T08:28:38.723Z,25.33
2023-02-11T08:31:11.254Z,23.95
2023-02-11T08:33:37.976Z,23.63
2023-02-11T08:36:12.863Z,24.88
2023-02-11T08:38:39.393Z,23.67
2023-02-11T08:41:06.774Z,22.92
2023-02-11T08:43:33.544Z,24.10
2023-02-11T08:46:02.169Z,25.48
2023-02-11T08:48:29.337Z,26.13
2023-02-11T08:50:56.627Z,26.65
2023-02-11T08:53:23.868Z,28.20
2023-02-11T08:55:52.172Z,27.02
2023-02-11T08:58:19.289Z,24.92
2023-02-11T09:00:46.333Z,25.55
2023-02-11T09:03:14.658Z,24.02
2023-02-11T09:05:45.565Z,25.23
2023-02-11T09:08:12.937Z,24.33
2023-02-11T09:10:40.194Z,26.05
2023-02-11T09:13:07.440Z,24.60
2023-02-11T09:15:34.443Z,26.30
2023-02-11T09:18:01.596Z,25.55
2023-02-11T09:20:28.621Z,26.20
2023-02-11T09:22:57.546Z,24.38
2023-02-11T09:25:24.308Z,27.42
2023-02-11T09:27:52.288Z,24.77
2023-02-11T09:30:18.796Z,25.88
2023-02-11T09:32:45.277Z,25.33
2023-02-11T09:35:11.855Z,25.52
2023-02-11T09:37:38.316Z,25.95
2023-02-11T09:40:05.251Z,24.58
2023-02-11T09:42:46.451Z,24.55
2023-02-11T09:45:17.901Z,25.65
2023-02-11T09:47:51.116Z,25.55
2023-02-11T09:50:36.175Z,26.48
2023-02-11T09:53:11.788Z,27.77
2023-02-11T09:55:44.946Z,26.02
2023-02-11T09:58:21.232Z,25.80
2023-02-11T10:01:03.120Z,25.92
2023-02-11T10:03:50.243Z,25.05
2023-02-11T10:06:39.855Z,26.63
2023-02-11T10:09:29.298Z,26.33
2023-02-11T10:12:23.302Z,25.30
2023-02-11T10:15:17.130Z,26.60
2023-02-11T10:18:10.738Z,25.27
2023-02-11T10:21:01.578Z,26.42
2023-02-11T10:23:35.780Z,25.65
2023-02-11T10:26:02.785Z,27.00
2023-02-11T10:28:33.272Z,24.63
2023-02-11T10:31:07.141Z,26.77
2023-02-11T10:33:43.932Z,24.33
2023-02-11T10:36:16.089Z,25.17
2023-02-11T10:38:43.290Z,25.73
2023-02-11T10:41:26.304Z,25.08
2023-02-11T10:43:52.831Z,27.63
2023-02-11T10:46:24.199Z,25.58
2023-02-11T10:48:53.416Z,25.67
2023-02-11T10:51:22.115Z,26.95
2023-02-11T10:54:03.847Z,25.80
2023-02-11T10:56:32.678Z,25.73
2023-02-11T10:59:02.527Z,25.58
2023-02-11T11:01:46.594Z,25.70
2023-02-11T11:04:34.679Z,25.70
2023-02-11T11:07:15.590Z,26.70
2023-02-11T11:09:55.804Z,25.75
2023-02-11T11:12:48.393Z,26.05
2023-02-11T11:15:18.741Z,26.73
2023-02-11T11:17:46.566Z,25.67
2023-02-11T11:20:24.551Z,26.13
2023-02-11T11:22:53.849Z,25.05
2023-02-11T11:25:23.570Z,26.65
2023-02-11T11:27:53.629Z,24.77
2023-02-11T11:30:20.871Z,26.77
2023-02-11T11:32:47.601Z,26.30
2023-02-11T11:35:27.324Z,26.08
2023-02-11T11:38:05.443Z,26.40
2023-02-11T11:40:34.788Z,26.45
2023-02-11T11:43:13.836Z,26.50
2023-02-11T11:45:54.730Z,25.15
2023-02-11T11:48:24.395Z,27.25
2023-02-11T11:50:55.397Z,26.90
2023-02-11T11:53:27.970Z,26.85
2023-02-11T11:56:19.912Z,27.88
2023-02-11T11:58:46.841Z,26.50
2023-02-11T12:01:18.659Z,27.33
2023-02-11T12:04:02.797Z,27.85
2023-02-11T12:06:51.435Z,26.88
2023-02-11T12:09:32.975Z,27.52
2023-02-11T12:12:06.895Z,29.23
2023-02-11T12:14:52.276Z,26.15
2023-02-11T12:17:54.245Z,25.08
2023-02-11T12:20:56.009Z,27.42
2023-02-11T12:23:48.371Z,28.00
2023-02-11T12:26:20.433Z,27.55
2023-02-11T12:29:03.242Z,25.55
2023-02-11T12:31:47.259Z,27.25
2023-02-11T12:34:30.209Z,26.67
2023-02-11T12:37:22.798Z,25.55
2023-02-11T12:40:15.501Z,25.50
2023-02-11T12:43:16.605Z,27.48
2023-02-11T12:46:08.002Z,23.50
2023-02-11T12:48:51.390Z,24.73
2023-02-11T12:51:27.071Z,26.27
2023-02-11T12:54:17.705Z,24.30
2023-02-11T12:56:44.042Z,24.58
2023-02-11T12:59:17.931Z,25.40
2023-02-11T13:01:45.047Z,25.40
2023-02-11T13:04:20.087Z,24.60
2023-02-11T13:06:55.497Z,24.55
2023-02-11T13:09:32.345Z,24.38
2023-02-11T13:12:24.597Z,24.20
2023-02-11T13:14:54.219Z,24.98
2023-02-11T13:17:34.085Z,24.33
2023-02-11T13:20:14.995Z,26.17
2023-02-11T13:22:49.133Z,22.88
2023-02-11T13:25:32.787Z,24.45
2023-02-11T13:28:11.339Z,23.77
2023-02-11T13:30:46.702Z,23.30
2023-02-11T13:33:20.410Z,23.85
2023-02-11T13:38:23.163Z,22.02
2023-02-11T13:41:04.745Z,23.90
2023-02-11T13:43:34.120Z,23.77
2023-02-11T13:46:04.124Z,23.67
2023-02-11T13:48:35.069Z,22.90
2023-02-11T13:51:10.799Z,24.10
2023-02-11T13:53:57.737Z,22.20
2023-02-11T13:56:32.408Z,21.92
2023-02-11T13:59:02.297Z,24.20
2023-02-11T14:02:07.301Z,23.98
2023-02-11T14:04:52.939Z,21.80
2023-02-11T14:07:52.122Z,23.42
2023-02-11T14:10:43.054Z,23.88
2023-02-11T14:13:28.224Z,23.75
2023-02-11T14:16:13.427Z,24.33
2023-02-11T14:18:45.613Z,23.63
2023-02-11T14:21:18.876Z,22.92
2023-02-11T14:23:46.332Z,23.17
2023-02-11T14:26:21.919Z,24.88
2023-02-11T14:28:54.917Z,24.13
2023-02-11T14:31:33.867Z,23.67
2023-02-11T14:34:39.717Z,24.48
2023-02-11T14:37:30.439Z,23.27
2023-02-11T14:40:08.607Z,24.10
2023-02-11T14:42:38.072Z,22.35
2023-02-11T14:45:11.092Z,23.58
2023-02-11T14:47:53.747Z,25.17
2023-02-11T14:50:28.262Z,23.33
2023-02-11T14:52:56.401Z,23.20
2023-02-11T14:55:33.547Z,22.85
2023-02-11T14:58:13.294Z,23.88
2023-02-11T15:00:50.518Z,24.83
2023-02-11T15:03:35.056Z,24.35
2023-02-11T15:06:06.430Z,24.15
2023-02-11T15:08:37.213Z,23.42
2023-02-11T15:11:10.083Z,24.52
2023-02-11T15:13:36.728Z,24.33
2023-02-11T15:16:11.526Z,24.83
2023-02-11T15:18:42.532Z,24.55
2023-02-11T15:21:10.374Z,23.50
2023-02-11T15:23:37.356Z,23.85
2023-02-11T15:26:13.512Z,24.70
2023-02-11T15:28:49.013Z,24.73
2023-02-11T15:31:18.065Z,25.33
2023-02-11T15:33:45.526Z,24.15
2023-02-11T15:36:14.797Z,22.58
2023-02-11T15:38:41.486Z,24.63
2023-02-11T15:41:27.916Z,22.85
2023-02-11T15:43:54.369Z,24.10
2023-02-11T15:46:23.186Z,24.02
2023-02-11T15:48:53.670Z,23.67
2023-02-11T15:51:29.558Z,23.15
2023-02-11T15:53:58.740Z,22.58
2023-02-11T15:56:33.281Z,22.45
2023-02-11T15:59:08.883Z,21.73
2023-02-11T16:01:37.496Z,22.38
2023-02-11T16:04:05.670Z,24.67
2023-02-11T16:06:39.447Z,23.13
2023-02-11T16:11:35.276Z,22.73
2023-02-11T16:14:20.022Z,23.30
2023-02-11T16:16:50.312Z,23.20
2023-02-11T16:19:24.161Z,24.13
2023-02-11T16:21:53.866Z,23.38
2023-02-11T16:24:24.618Z,23.38
2023-02-11T16:26:54.936Z,24.10
2023-02-11T16:29:30.003Z,23.52
2023-02-11T16:32:29.672Z,24.27
2023-02-11T16:34:58.968Z,23.83
2023-02-11T16:37:25.994Z,29.45
2023-02-11T16:39:58.811Z,25.15
2023-02-11T16:42:25.728Z,22.60
2023-02-11T16:44:52.187Z,23.73
2023-02-11T16:47:28.683Z,22.30
2023-02-11T16:49:56.334Z,24.25
2023-02-11T16:52:23.334Z,21.85
2023-02-11T16:54:52.355Z,23.73
2023-02-11T16:57:24.393Z,24.80
2023-02-11T16:59:51.867Z,24.73
2023-02-11T17:02:24.814Z,25.15
2023-02-11T17:04:53.791Z,28.27
2023-02-11T17:07:20.514Z,24.90
2023-02-11T17:09:46.985Z,30.80
2023-02-11T17:12:13.617Z,28.85
2023-02-11T17:14:40.055Z,26.27
2023-02-11T17:17:06.716Z,25.38
2023-02-11T17:19:33.253Z,23.35
2023-02-11T17:22:00.018Z,24.63
2023-02-11T17:24:26.471Z,25.33
2023-02-11T17:26:53.018Z,23.65
2023-02-11T17:29:22.556Z,26.70
2023-02-11T17:31:49.818Z,25.85
2023-02-11T17:34:16.709Z,24.80
2023-02-11T17:36:43.219Z,23.63
2023-02-11T17:39:10.132Z,23.60
2023-02-11T17:41:37.716Z,23.25
2023-02-11T17:44:04.966Z,23.67
2023-02-11T17:46:32.225Z,24.17
2023-02-11T17:49:00.348Z,25.02
2023-02-11T17:51:31.061Z,25.27
2023-02-11T17:54:00.223Z,25.08
2023-02-11T17:56:26.740Z,24.17
2023-02-11T17:58:53.395Z,23.83
2023-02-11T18:01:20.456Z,24.20
2023-02-11T18:03:47.026Z,21.73
2023-02-11T18:06:14.398Z,24.08
2023-02-11T18:08:41.914Z,23.63
2023-02-11T18:11:12.684Z,23.02
2023-02-11T18:13:39.155Z,23.63
2023-02-11T18:16:08.680Z,24.08
2023-02-11T18:18:35.573Z,24.08
2023-02-11T18:21:04.150Z,23.75
2023-02-11T18:23:30.637Z,23.13
2023-02-11T18:25:57.053Z,23.52
2023-02-11T18:28:23.663Z,24.52
2023-02-11T18:30:57.399Z,23.73
2023-02-11T18:35:50.726Z,22.55
2023-02-11T18:38:18.973Z,24.15
2023-02-11T18:40:50.370Z,27.77
2023-02-11T18:43:18.881Z,24.20
2023-02-11T18:45:50.338Z,23.45
2023-02-11T18:48:18.572Z,23.38
2023-02-11T18:50:46.342Z,25.83
2023-02-11T18:53:15.648Z,24.65
2023-02-11T18:55:49.144Z,25.30
2023-02-11T18:58:16.011Z,26.55
2023-02-11T19:00:45.048Z,23.33
2023-02-11T19:03:12.303Z,23.48
2023-02-11T19:05:43.198Z,22.75
2023-02-11T19:08:09.823Z,24.08
2023-02-11T19:10:40.119Z,23.88
2023-02-11T19:13:06.600Z,24.33
2023-02-11T19:15:33.110Z,23.30
2023-02-11T19:17:59.524Z,23.50
2023-02-11T19:20:25.987Z,23.30
2023-02-11T19:22:52.388Z,23.25
2023-02-11T19:25:19.610Z,24.05
2023-02-11T19:27:46.011Z,23.55
2023-02-11T19:30:12.776Z,25.00
2023-02-11T19:32:39.230Z,24.08
2023-02-11T19:35:06.459Z,24.90
2023-02-11T19:37:32.967Z,22.90
2023-02-11T19:39:59.383Z,22.90
2023-02-11T19:42:27.646Z,23.95
2023-02-11T19:44:54.251Z,23.55
2023-02-11T19:47:27.499Z,24.58
2023-02-11T19:49:54.279Z,22.88
2023-02-11T19:52:21.107Z,24.02
2023-02-11T19:54:47.580Z,24.30
2023-02-11T19:57:14.000Z,23.83
2023-02-11T19:59:40.491Z,24.23
2023-02-11T20:02:06.918Z,24.00
2023-02-11T20:04:33.676Z,24.17
2023-02-11T20:07:00.563Z,24.05
2023-02-11T20:09:29.019Z,22.92
2023-02-11T20:11:55.469Z,22.30
2023-02-11T20:14:21.934Z,22.67
2023-02-11T20:16:50.114Z,22.35
2023-02-11T20:19:19.333Z,22.45
2023-02-11T20:21:48.216Z,23.80
2023-02-11T20:24:16.127Z,23.58
2023-02-11T20:26:42.723Z,23.15
2023-02-11T20:29:09.867Z,23.10
2023-02-11T20:31:36.883Z,24.13
2023-02-11T20:34:03.553Z,24.08
2023-02-11T20:36:34.095Z,24.05
2023-02-11T20:39:04.846Z,22.13
2023-02-11T20:41:34.319Z,21.35
2023-02-11T20:44:05.090Z,21.63
2023-02-11T20:46:33.579Z,20.60
2023-02-11T20:49:00.712Z,22.73
2023-02-11T20:51:30.264Z,21.83
2023-02-11T20:53:57.728Z,21.98
2023-02-11T20:56:26.901Z,23.88
2023-02-11T20:58:53.614Z,23.15
2023-02-11T21:01:23.625Z,23.63
2023-02-11T21:03:59.041Z,21.55
2023-02-11T21:06:30.855Z,22.15
2023-02-11T21:08:57.567Z,23.17
2023-02-11T21:11:24.039Z,23.50
2023-02-11T21:13:51.153Z,22.15
2023-02-11T21:16:22.652Z,21.42
2023-02-11T21:18:50.271Z,23.48
2023-02-11T21:21:19.032Z,22.38
2023-02-11T21:23:46.169Z,21.73
2023-02-11T21:26:13.032Z,21.40
2023-02-11T21:28:41.162Z,21.70
2023-02-11T21:31:08.332Z,21.45
2023-02-11T21:33:35.050Z,22.63
2023-02-11T21:36:03.558Z,22.35
2023-02-11T21:38:30.374Z,22.63
2023-02-11T21:41:03.122Z,22.20
2023-02-11T21:43:29.521Z,21.77
2023-02-11T21:45:56.134Z,21.38
2023-02-11T21:48:23.836Z,22.17
2023-02-11T21:50:50.303Z,22.35
2023-02-11T21:53:17.139Z,21.92
2023-02-11T21:55:44.355Z,21.98
2023-02-11T21:58:12.637Z,21.73
2023-02-11T22:00:39.470Z,20.98
2023-02-11T22:03:05.930Z,22.13
2023-02-11T22:05:32.528Z,21.90
2023-02-11T22:07:58.942Z,23.52
2023-02-11T22:10:25.362Z,21.90
2023-02-11T22:12:51.790Z,22.27
2023-02-11T22:15:18.253Z,23.65
2023-02-11T22:17:44.750Z,22.45
2023-02-11T22:20:13.367Z,21.83
2023-02-11T22:22:39.821Z,21.23
2023-02-11T22:25:06.838Z,21.13
2023-02-11T22:27:33.266Z,20.63
2023-02-11T22:29:59.878Z,21.77
2023-02-11T22:32:26.738Z,21.55
2023-02-11T22:34:53.653Z,22.17
2023-02-11T22:37:20.507Z,21.60
2023-02-11T22:39:47.117Z,20.33
2023-02-11T22:42:13.593Z,21.67
2023-02-11T22:44:40.106Z,21.42
2023-02-11T22:47:06.538Z,21.00
2023-02-11T22:49:33.304Z,22.48
2023-02-11T22:52:00.100Z,20.20
2023-02-11T22:54:26.613Z,21.15
2023-02-11T22:56:53.393Z,19.67
2023-02-11T22:59:23.079Z,21.30
2023-02-11T23:01:49.727Z,21.80
2023-02-11T23:04:17.035Z,21.58
2023-02-11T23:06:43.544Z,20.30
2023-02-11T23:09:12.517Z,22.10
2023-02-11T23:11:39.684Z,21.40
2023-02-11T23:14:08.594Z,22.50
2023-02-11T23:16:35.649Z,21.27
2023-02-11T23:19:08.325Z,21.27
2023-02-11T23:21:37.117Z,21.23
2023-02-11T23:24:05.236Z,21.35
2023-02-11T23:26:31.747Z,20.48
2023-02-11T23:29:00.647Z,21.20
2023-02-11T23:31:34.922Z,21.67
2023-02-11T23:34:01.698Z,18.55
2023-02-11T23:36:28.726Z,19.65
2023-02-11T23:38:55.441Z,19.67
2023-02-11T23:41:22.196Z,18.33
2023-02-11T23:43:53.668Z,19.17
2023-02-11T23:46:24.373Z,18.85
2023-02-11T23:48:51.710Z,18.80
2023-02-11T23:51:18.848Z,19.58
2023-02-11T23:53:46.235Z,17.50
2023-02-11T23:56:18.949Z,18.65
2023-02-11T23:58:48.318Z,18.33
